createdAt,value
2018-04-19T00:02:09.148Z,87.50
2018-04-19T00:04:36.639Z,87.00
2018-04-19T00:07:04.170Z,87.50
2018-04-19T00:09:32.038Z,86.90
2018-04-19T00:12:00.432Z,86.50
2018-04-19T00:14:27.958Z,87.80
2018-04-19T00:16:55.923Z,88.50
2018-04-19T00:19:23.418Z,89.00
2018-04-19T00:21:51.258Z,89.40
2018-04-19T00:24:18.745Z,89.10
2018-04-19T00:26:46.245Z,89.50
2018-04-19T00:29:15.458Z,89.30
2018-04-19T00:31:42.952Z,89.20
2018-04-19T00:34:10.437Z,89.10
2018-04-19T00:36:38.239Z,89.50
2018-04-19T00:39:06.588Z,89.20
2018-04-19T00:41:34.092Z,89.70
2018-04-19T00:44:01.824Z,90.20
2018-04-19T00:46:30.236Z,89.40
2018-04-19T00:48:58.307Z,89.30
2018-04-19T00:51:25.941Z,90.00
2018-04-19T00:53:53.805Z,90.30
2018-04-19T00:56:21.793Z,90.50
2018-04-19T00:58:49.313Z,90.30
2018-04-19T01:01:16.831Z,90.10
2018-04-19T01:03:44.728Z,90.10
2018-04-19T01:06:12.330Z,89.80
2018-04-19T01:08:40.218Z,89.90
2018-04-19T01:11:07.708Z,90.00
2018-04-19T01:13:35.198Z,90.00
2018-04-19T01:16:03.031Z,90.30
2018-04-19T01:18:30.841Z,90.30
2018-04-19T01:20:58.329Z,90.20
2018-04-19T01:23:26.172Z,90.60
2018-04-19T01:25:54.051Z,91.10
2018-04-19T01:28:21.887Z,91.10
2018-04-19T01:30:49.620Z,91.10
2018-04-19T01:33:17.124Z,90.50
2018-04-19T01:35:56.451Z,90.30
2018-04-19T01:38:24.444Z,90.20
2018-04-19T01:40:52.983Z,90.50
2018-04-19T01:43:22.160Z,90.50
2018-04-19T01:45:49.698Z,90.50
2018-04-19T01:48:17.189Z,90.60
2018-04-19T01:50:45.381Z,90.60
2018-04-19T01:53:12.863Z,90.30
2018-04-19T01:55:40.362Z,90.10
2018-04-19T01:58:07.862Z,90.10
2018-04-19T02:00:36.268Z,90.10
2018-04-19T02:03:04.119Z,90.10
2018-04-19T02:05:31.776Z,90.70
2018-04-19T02:07:59.527Z,91.00
2018-04-19T02:10:27.027Z,91.10
2018-04-19T02:12:54.845Z,91.20
2018-04-19T02:15:22.522Z,91.40
2018-04-19T02:17:50.246Z,91.60
2018-04-19T02:20:18.136Z,91.60
2018-04-19T02:22:46.397Z,91.50
2018-04-19T02:25:13.898Z,91.50
2018-04-19T02:27:41.656Z,91.40
2018-04-19T02:30:09.334Z,91.10
2018-04-19T02:32:37.198Z,90.90
2018-04-19T02:35:04.896Z,90.90
2018-04-19T02:37:33.005Z,90.60
2018-04-19T02:40:01.273Z,90.80
2018-04-19T02:42:29.704Z,90.70
2018-04-19T02:44:57.353Z,90.70
2018-04-19T02:47:24.992Z,91.10
2018-04-19T02:49:52.854Z,91.20
2018-04-19T02:52:20.373Z,91.20
2018-04-19T02:54:48.313Z,91.20
2018-04-19T02:57:15.799Z,91.00
2018-04-19T02:59:43.599Z,91.00
2018-04-19T03:02:11.874Z,90.90
2018-04-19T03:04:40.484Z,91.20
2018-04-19T03:07:08.149Z,91.20
2018-04-19T03:09:35.974Z,91.40
2018-04-19T03:12:03.460Z,91.40
2018-04-19T03:14:31.549Z,91.50
2018-04-19T03:16:59.106Z,91.10
2018-04-19T03:19:26.948Z,91.10
2018-04-19T03:21:55.336Z,90.90
2018-04-19T03:24:23.080Z,90.90
2018-04-19T03:26:51.325Z,90.90
2018-04-19T03:29:19.126Z,90.80
2018-04-19T03:31:46.628Z,90.50
2018-04-19T03:34:14.665Z,90.40
2018-04-19T03:36:42.156Z,90.00
2018-04-19T03:39:10.107Z,89.30
2018-04-19T03:41:37.951Z,88.60
2018-04-19T03:44:05.765Z,87.70
2018-04-19T03:46:33.294Z,87.00
2018-04-19T03:49:01.565Z,86.40
2018-04-19T03:51:29.055Z,86.30
2018-04-19T03:53:56.610Z,86.10
2018-04-19T03:56:24.076Z,86.30
2018-04-19T03:58:51.608Z,86.30
2018-04-19T04:01:19.213Z,86.20
2018-04-19T04:03:46.684Z,86.10
2018-04-19T04:06:15.277Z,85.70
2018-04-19T04:08:42.966Z,85.60
2018-04-19T04:11:10.808Z,85.60
2018-04-19T04:13:39.064Z,85.70
2018-04-19T04:16:06.876Z,85.60
2018-04-19T04:21:50.749Z,85.40
2018-04-19T04:24:18.581Z,85.50
2018-04-19T04:26:46.900Z,86.20
2018-04-19T04:29:14.847Z,86.30
2018-04-19T04:31:42.859Z,86.10
2018-04-19T04:34:10.964Z,86.90
2018-04-19T04:36:38.493Z,86.20
2018-04-19T04:39:05.999Z,86.40
2018-04-19T04:41:33.494Z,86.40
2018-04-19T04:44:01.001Z,86.60
2018-04-19T04:46:29.284Z,86.90
2018-04-19T04:48:56.818Z,86.70
2018-04-19T04:51:24.349Z,86.90
2018-04-19T04:53:52.208Z,87.00
2018-04-19T04:56:20.037Z,86.90
2018-04-19T04:58:47.509Z,87.20
2018-04-19T05:01:15.000Z,87.10
2018-04-19T05:03:42.619Z,87.10
2018-04-19T05:06:10.124Z,87.10
2018-04-19T05:08:37.646Z,86.90
2018-04-19T05:11:05.148Z,86.70
2018-04-19T05:13:32.948Z,86.30
2018-04-19T05:16:00.458Z,85.40
2018-04-19T05:18:28.277Z,84.70
2018-04-19T05:20:56.309Z,84.20
2018-04-19T05:23:24.014Z,83.50
2018-04-19T05:25:51.519Z,81.90
2018-04-19T05:28:19.316Z,81.30
2018-04-19T06:50:10.159Z,47.20
2018-04-19T06:52:38.105Z,46.60
2018-04-19T06:55:05.787Z,44.20
2018-04-19T06:57:33.439Z,41.60
2018-04-19T07:00:01.319Z,42.30
2018-04-19T07:02:28.949Z,41.60
2018-04-19T07:04:57.797Z,41.60
2018-04-19T07:07:25.318Z,41.60
2018-04-19T07:09:53.585Z,37.40
2018-04-19T07:12:21.096Z,37.40
2018-04-19T07:14:48.632Z,35.80
2018-04-19T07:17:16.360Z,35.10
2018-04-19T07:19:44.055Z,33.20
2018-04-19T07:22:12.129Z,32.40
2018-04-19T07:24:39.767Z,33.30
2018-04-19T07:27:07.947Z,35.80
2018-04-19T07:29:35.462Z,36.10
2018-04-19T07:32:03.276Z,33.90
2018-04-19T07:34:31.766Z,33.40
2018-04-19T07:36:59.275Z,34.00
2018-04-19T07:39:27.415Z,33.80
2018-04-19T07:41:55.338Z,31.50
2018-04-19T07:44:22.848Z,30.60
2018-04-19T07:46:50.690Z,30.20
2018-04-19T07:49:18.993Z,30.00
2018-04-19T07:51:47.594Z,30.00
2018-04-19T07:54:15.105Z,30.40
2018-04-19T07:56:42.972Z,29.60
2018-04-19T07:59:10.665Z,31.00
2018-04-19T08:01:38.268Z,30.70
2018-04-19T08:04:06.885Z,28.60
2018-04-19T08:06:34.488Z,28.60
2018-04-19T08:09:02.265Z,28.70
2018-04-19T08:11:30.485Z,28.80
2018-04-19T08:13:58.116Z,28.50
2018-04-19T08:16:26.016Z,28.30
2018-04-19T08:18:53.907Z,28.40
2018-04-19T08:21:21.411Z,26.70
2018-04-19T08:23:49.883Z,25.90
2018-04-19T08:26:17.409Z,25.40
2018-04-19T08:28:46.334Z,26.90
2018-04-19T08:31:15.282Z,26.30
2018-04-19T08:33:42.916Z,26.20
2018-04-19T08:36:11.678Z,25.80
2018-04-19T08:38:39.617Z,26.20
2018-04-19T08:41:07.213Z,26.30
2018-04-19T08:43:34.926Z,27.10
2018-04-19T08:46:03.439Z,27.50
2018-04-19T08:48:32.161Z,26.80
2018-04-19T08:50:59.988Z,26.70
2018-04-19T08:53:27.565Z,26.10
2018-04-19T08:55:56.945Z,27.80
2018-04-19T08:58:24.482Z,28.40
2018-04-19T09:00:52.148Z,27.60
2018-04-19T09:03:20.073Z,26.60
2018-04-19T09:05:47.600Z,27.40
2018-04-19T09:08:15.889Z,26.20
2018-04-19T09:10:43.772Z,26.20
2018-04-19T09:13:12.499Z,25.80
2018-04-19T09:15:39.989Z,25.30
2018-04-19T09:18:09.047Z,24.70
2018-04-19T09:20:36.582Z,24.70
2018-04-19T09:23:04.118Z,24.40
2018-04-19T09:25:31.669Z,25.20
2018-04-19T09:28:00.921Z,24.40
2018-04-19T09:30:28.450Z,25.30
2018-04-19T09:32:56.311Z,25.80
2018-04-19T09:35:24.386Z,25.70
2018-04-19T09:37:52.517Z,25.70
2018-04-19T09:40:20.053Z,25.20
2018-04-19T09:42:47.553Z,24.10
2018-04-19T09:45:15.314Z,25.10
2018-04-19T09:47:43.223Z,24.50
2018-04-19T09:50:10.720Z,26.20
2018-04-19T09:52:39.154Z,27.10
2018-04-19T09:55:06.640Z,27.00
2018-04-19T09:57:34.148Z,25.60
2018-04-19T10:00:02.585Z,24.70
2018-04-19T10:02:30.912Z,23.90
2018-04-19T10:05:03.954Z,23.90
2018-04-19T10:07:32.392Z,24.20
2018-04-19T10:10:00.288Z,23.10
2018-04-19T10:12:28.366Z,24.40
2018-04-19T10:14:56.084Z,25.80
2018-04-19T10:17:24.014Z,25.30
2018-04-19T10:19:51.972Z,22.90
2018-04-19T10:22:19.451Z,23.70
2018-04-19T10:24:47.509Z,24.00
2018-04-19T10:27:15.796Z,24.90
2018-04-19T10:29:43.717Z,24.60
2018-04-19T10:32:11.263Z,24.60
2018-04-19T10:34:38.771Z,25.10
2018-04-19T10:37:07.672Z,25.70
2018-04-19T10:39:36.503Z,25.30
2018-04-19T10:42:04.242Z,25.30
2018-04-19T13:44:55.953Z,24.60
2018-04-19T13:47:23.695Z,25.20
2018-04-19T13:49:51.865Z,24.00
2018-04-19T13:52:19.380Z,26.80
2018-04-19T13:54:47.331Z,25.50
2018-04-19T13:57:15.360Z,23.30
2018-04-19T13:59:42.852Z,23.00
2018-04-19T14:02:10.685Z,23.50
2018-04-19T14:04:38.187Z,25.50
2018-04-19T14:07:06.122Z,26.80
2018-04-19T14:09:33.646Z,25.30
2018-04-19T14:12:01.937Z,25.50
2018-04-19T14:14:30.219Z,25.50
2018-04-19T14:16:59.571Z,25.70
2018-04-19T14:19:27.104Z,25.60
2018-04-19T14:21:54.856Z,26.40
2018-04-19T14:24:22.349Z,26.00
2018-04-19T14:26:50.919Z,25.50
2018-04-19T14:29:18.440Z,26.50
2018-04-19T14:31:46.365Z,26.00
2018-04-19T14:34:14.805Z,26.00
2018-04-19T14:36:42.664Z,25.60
2018-04-19T14:39:10.156Z,26.70
2018-04-19T14:41:38.305Z,25.90
2018-04-19T14:44:05.834Z,26.00
2018-04-19T14:46:34.561Z,25.80
2018-04-19T14:49:02.069Z,25.80
2018-04-19T14:51:29.889Z,26.70
2018-04-19T14:53:57.398Z,26.00
2018-04-19T14:56:25.933Z,25.60
2018-04-19T14:58:53.442Z,25.80
2018-04-19T15:01:21.375Z,26.50
2018-04-19T15:03:48.872Z,25.50
2018-04-19T15:06:17.676Z,25.70
2018-04-19T15:08:45.286Z,25.70
2018-04-19T15:11:13.694Z,25.40
2018-04-19T15:13:41.565Z,25.40
2018-04-19T15:16:09.116Z,27.10
2018-04-19T15:18:38.583Z,27.20
2018-04-19T15:21:06.202Z,27.10
2018-04-19T15:23:34.126Z,26.30
2018-04-19T15:26:01.638Z,25.50
2018-04-19T15:28:30.781Z,25.40
2018-04-19T15:30:58.257Z,26.10
2018-04-19T15:33:29.357Z,26.20
2018-04-19T15:35:57.159Z,26.20
2018-04-19T15:38:25.097Z,26.40
2018-04-19T15:40:53.045Z,26.60
2018-04-19T15:43:20.645Z,27.00
2018-04-19T15:45:49.392Z,26.70
2018-04-19T15:48:17.012Z,27.00
2018-04-19T15:50:45.514Z,28.30
2018-04-19T15:53:13.492Z,27.90
2018-04-19T15:55:40.992Z,27.50
2018-04-19T15:58:09.617Z,27.40
2018-04-19T16:00:37.389Z,27.60
2018-04-19T16:03:05.322Z,26.70
2018-04-19T16:05:33.673Z,27.70
2018-04-19T16:08:02.515Z,27.60
2018-04-19T16:10:30.056Z,27.60
2018-04-19T16:12:57.849Z,27.10
2018-04-19T16:15:25.632Z,27.70
2018-04-19T16:17:53.135Z,28.60
2018-04-19T16:20:20.816Z,28.40
2018-04-19T16:22:49.345Z,28.00
2018-04-19T16:25:17.122Z,28.60
2018-04-19T16:27:45.812Z,29.00
2018-04-19T16:30:13.370Z,29.00
2018-04-19T16:32:40.847Z,29.70
2018-04-19T16:35:08.377Z,30.00
2018-04-19T16:37:36.955Z,29.90
2018-04-19T16:40:04.525Z,30.40
2018-04-19T16:42:33.663Z,30.20
2018-04-19T16:45:01.158Z,30.80
2018-04-19T16:47:29.489Z,29.70
2018-04-19T16:50:04.127Z,29.50
2018-04-19T16:52:33.097Z,29.90
2018-04-19T16:55:05.506Z,29.50
2018-04-19T16:57:33.374Z,29.90
2018-04-19T17:00:00.972Z,30.00
2018-04-19T17:02:29.700Z,30.00
2018-04-19T17:04:57.957Z,30.00
2018-04-19T17:07:26.201Z,30.00
2018-04-19T17:09:53.887Z,30.30
2018-04-19T17:12:21.392Z,31.50
2018-04-19T17:14:49.917Z,31.40
2018-04-19T17:17:17.662Z,31.40
2018-04-19T17:22:42.473Z,31.60
2018-04-19T17:25:10.353Z,31.80
2018-04-19T17:27:37.847Z,31.70
2018-04-19T17:30:06.851Z,32.80
2018-04-19T17:32:34.455Z,33.10
2018-04-19T17:35:02.012Z,33.20
2018-04-19T17:37:29.881Z,33.40
2018-04-19T17:39:57.718Z,35.10
2018-04-19T17:42:26.301Z,35.90
2018-04-19T17:44:53.822Z,35.80
2018-04-19T17:47:22.432Z,35.90
2018-04-19T17:49:49.920Z,35.90
2018-04-19T17:52:17.759Z,36.30
2018-04-19T17:54:46.748Z,37.60
2018-04-19T17:57:14.266Z,37.50
2018-04-19T17:59:42.002Z,37.70
2018-04-19T18:02:09.758Z,39.20
2018-04-19T18:04:37.294Z,41.20
2018-04-19T18:07:05.560Z,40.40
2018-04-19T18:09:33.472Z,40.30
2018-04-19T18:12:00.971Z,40.90
2018-04-19T18:14:28.989Z,40.50
2018-04-19T18:16:57.023Z,42.40
2018-04-19T18:19:24.520Z,41.90
2018-04-19T18:21:52.408Z,44.70
2018-04-19T18:24:19.925Z,43.40
2018-04-19T18:26:48.197Z,42.50
2018-04-19T18:29:16.802Z,43.30
2018-04-19T18:31:44.323Z,43.30
2018-04-19T18:34:12.112Z,43.40
2018-04-19T18:36:40.935Z,45.40
2018-04-19T18:39:08.442Z,45.30
2018-04-19T18:41:36.554Z,45.00
2018-04-19T18:44:04.222Z,45.40
2018-04-19T18:46:32.125Z,45.20
2018-04-19T18:49:01.476Z,46.40
2018-04-19T18:51:29.162Z,45.70
2018-04-19T18:53:56.813Z,45.70
2018-04-19T18:56:24.382Z,46.70
2018-04-19T18:58:52.944Z,47.20
2018-04-19T19:01:20.441Z,47.60
2018-04-19T19:03:47.966Z,48.30
2018-04-19T19:06:15.501Z,48.50
2018-04-19T19:08:43.828Z,49.20
2018-04-19T19:11:11.909Z,49.20
2018-04-19T19:13:39.538Z,49.20
2018-04-19T19:16:08.346Z,49.60
2018-04-19T19:18:47.759Z,49.60
2018-04-19T19:21:15.629Z,49.70
2018-04-19T19:23:45.802Z,50.60
2018-04-19T19:26:14.946Z,51.90
2018-04-19T19:28:43.013Z,51.90
2018-04-19T19:31:10.518Z,52.80
2018-04-19T19:33:38.033Z,53.70
2018-04-19T19:36:06.166Z,54.40
2018-04-19T19:38:33.731Z,54.40
2018-04-19T19:41:02.334Z,54.80
2018-04-19T19:43:29.822Z,54.60
2018-04-19T19:45:57.796Z,54.80
2018-04-19T19:48:25.350Z,54.90
2018-04-19T19:50:52.849Z,55.10
2018-04-19T19:53:20.412Z,55.60
2018-04-19T19:55:48.315Z,56.00
2018-04-19T19:58:16.175Z,56.20
2018-04-19T20:00:44.445Z,57.00
2018-04-19T20:03:11.943Z,57.70
2018-04-19T20:05:40.350Z,58.80
2018-04-19T20:08:09.061Z,59.10
2018-04-19T20:10:37.327Z,58.90
2018-04-19T20:13:05.637Z,59.70
2018-04-19T20:15:34.323Z,59.60
2018-04-19T20:18:02.149Z,59.70
2018-04-19T20:20:34.401Z,60.40
2018-04-19T20:23:01.950Z,60.40
2018-04-19T20:25:29.611Z,61.10
2018-04-19T20:27:57.132Z,61.00
2018-04-19T20:30:24.645Z,61.40
2018-04-19T20:32:53.596Z,62.20
2018-04-19T20:35:21.321Z,62.90
2018-04-19T20:37:50.488Z,63.70
2018-04-19T20:40:18.410Z,63.80
2018-04-19T20:42:45.935Z,63.80
2018-04-19T20:45:14.224Z,63.70
2018-04-19T20:47:41.870Z,63.80
2018-04-19T20:50:10.129Z,64.20
2018-04-19T20:52:37.692Z,64.20
2018-04-19T20:55:05.200Z,64.90
2018-04-19T20:57:33.049Z,65.20
2018-04-19T21:00:00.551Z,65.20
2018-04-19T21:02:28.360Z,65.60
2018-04-19T21:04:56.284Z,65.90
2018-04-19T21:07:23.791Z,66.00
2018-04-19T21:09:52.312Z,66.40
2018-04-19T21:12:19.838Z,66.40
2018-04-19T21:14:47.928Z,66.30
2018-04-19T21:17:15.433Z,66.70
2018-04-19T21:19:43.776Z,66.50
2018-04-19T21:22:11.396Z,66.50
2018-04-19T21:24:39.277Z,66.90
2018-04-19T21:27:06.893Z,67.00
2018-04-19T21:29:34.394Z,66.70
2018-04-19T21:32:01.881Z,67.00
2018-04-19T21:34:29.387Z,67.90
2018-04-19T21:36:57.637Z,68.00
2018-04-19T21:39:25.779Z,67.30
2018-04-19T21:41:53.317Z,68.10
2018-04-19T21:44:21.175Z,68.40
2018-04-19T21:46:49.079Z,68.60
2018-04-19T21:57:34.358Z,69.20
2018-04-19T22:00:01.856Z,69.60
2018-04-19T22:02:30.363Z,70.70
2018-04-19T22:04:58.105Z,71.10
2018-04-19T22:07:26.378Z,72.10
2018-04-19T22:09:54.888Z,72.40
2018-04-19T22:12:23.460Z,72.40
2018-04-19T22:14:50.949Z,72.80
2018-04-19T22:17:18.996Z,73.60
2018-04-19T22:19:46.502Z,73.40
2018-04-19T22:22:14.115Z,73.40
2018-04-19T22:24:41.984Z,74.00
2018-04-19T22:27:09.482Z,74.40
2018-04-19T22:29:36.984Z,74.70
2018-04-19T22:32:05.683Z,75.00
2018-04-19T22:34:34.084Z,74.90
2018-04-19T22:37:01.636Z,75.70
2018-04-19T22:39:29.445Z,76.20
2018-04-19T22:41:57.085Z,76.20
2018-04-19T22:44:25.029Z,77.10
2018-04-19T22:46:52.553Z,77.00
2018-04-19T22:49:20.061Z,77.00
2018-04-19T22:51:47.680Z,76.20
2018-04-19T22:54:15.767Z,76.50
2018-04-19T22:56:43.414Z,76.10
2018-04-19T22:59:10.907Z,76.50
2018-04-19T23:01:38.540Z,76.40
2018-04-19T23:04:06.440Z,76.60
2018-04-19T23:06:33.926Z,76.20
2018-04-19T23:09:01.755Z,76.60
2018-04-19T23:11:29.261Z,77.10
2018-04-19T23:13:57.665Z,78.00
2018-04-19T23:16:25.536Z,78.00
2018-04-19T23:18:53.023Z,77.80
2018-04-19T23:21:20.866Z,77.30
2018-04-19T23:23:48.769Z,78.00
2018-04-19T23:26:16.536Z,77.80
2018-04-19T23:28:44.323Z,78.60
2018-04-19T23:31:11.830Z,78.80
2018-04-19T23:33:39.348Z,79.10
2018-04-19T23:36:07.244Z,79.30
2018-04-19T23:38:34.726Z,79.30
2018-04-19T23:41:02.583Z,79.60
2018-04-19T23:43:30.448Z,79.20
2018-04-19T23:45:57.931Z,78.40
2018-04-19T23:48:26.052Z,78.50
2018-04-19T23:50:53.652Z,78.70
2018-04-19T23:53:21.141Z,79.20
2018-04-19T23:55:49.465Z,79.90
2018-04-19T23:58:17.144Z,80.10
